Time;durP1;ratioP1;P1;durP2;ratioP2;P2;SDS_P1;SDS_P2;PMS_P1;PMS_P2;Temp;Humidity;BMP_temperature;BMP_pressure;BME280_temperature;BME280_humidity;BME280_pressure;Samples;Min_cycle;Max_cycle;Signal;HPM_P1;HPM_P2
2023/08/02 00:01:56;;;;;;;12.13;6.23;;;19.00;99.90;;;;;;4977780;28;20487;-58
2023/08/02 00:04:22;;;;;;;5.80;5.40;;;19.00;99.90;;;;;;4980806;28;20250;-57
2023/08/02 00:06:48;;;;;;;6.27;5.80;;;19.00;99.90;;;;;;4974549;28;20632;-56
2023/08/02 00:09:13;;;;;;;7.03;6.43;;;19.00;99.90;;;;;;4984383;28;20180;-56
2023/08/02 00:11:39;;;;;;;5.87;5.20;;;19.00;99.90;;;;;;4994004;28;20180;-55
2023/08/02 00:14:05;;;;;;;6.00;5.50;;;19.00;99.90;;;;;;4975359;28;20220;-54
2023/08/02 00:16:31;;;;;;;13.90;6.03;;;19.00;99.90;;;;;;4983723;28;20172;-56
2023/08/02 00:18:56;;;;;;;6.30;5.80;;;19.00;99.90;;;;;;4972937;28;20183;-58
2023/08/02 00:21:22;;;;;;;7.70;5.77;;;19.00;99.90;;;;;;4973708;28;20191;-55
2023/08/02 00:23:48;;;;;;;5.87;5.43;;;18.90;99.90;;;;;;4982298;28;20179;-56
2023/08/02 00:26:14;;;;;;;6.30;5.77;;;18.90;99.90;;;;;;4992255;28;20203;-56
2023/08/02 00:28:39;;;;;;;6.20;5.30;;;18.90;99.90;;;;;;4977131;28;20220;-54
2023/08/02 00:31:05;;;;;;;5.87;5.47;;;18.90;99.90;;;;;;4973043;28;20667;-56
2023/08/02 00:33:31;;;;;;;5.80;5.30;;;18.90;99.90;;;;;;4974131;28;20201;-57
2023/08/02 00:35:57;;;;;;;5.37;4.93;;;18.90;99.90;;;;;;4973537;28;20184;-58
2023/08/02 00:38:23;;;;;;;5.63;5.13;;;18.90;99.90;;;;;;4979411;28;20187;-53
2023/08/02 00:40:49;;;;;;;5.93;5.57;;;18.90;99.90;;;;;;4976041;28;20430;-55
2023/08/02 00:43:15;;;;;;;5.37;5.00;;;18.90;99.90;;;;;;4979958;28;20428;-55
2023/08/02 00:45:40;;;;;;;6.07;5.47;;;18.90;99.90;;;;;;4977715;28;20183;-56
2023/08/02 00:48:06;;;;;;;7.80;5.10;;;18.90;99.90;;;;;;4992607;28;20184;-56
2023/08/02 00:50:34;;;;;;;5.47;4.97;;;18.80;99.90;;;;;;4975968;28;20176;-58
2023/08/02 00:53:00;;;;;;;5.70;5.27;;;18.80;99.90;;;;;;4980982;28;20660;-58
2023/08/02 00:55:26;;;;;;;5.20;4.90;;;18.70;99.90;;;;;;4993447;28;20458;-58
2023/08/02 00:57:52;;;;;;;5.30;4.80;;;18.70;99.90;;;;;;4975077;28;20447;-58
2023/08/02 01:00:18;;;;;;;5.53;5.13;;;18.80;99.90;;;;;;4978507;28;20445;-58
2023/08/02 01:02:44;;;;;;;6.60;5.97;;;18.80;99.90;;;;;;4992180;28;20180;-58
2023/08/02 01:05:10;;;;;;;6.17;5.73;;;18.80;99.90;;;;;;4990680;28;20267;-58
2023/08/02 01:08:05;;;;;;;6.00;5.70;;;18.80;99.90;;;;;;4991895;28;20442;-58
2023/08/02 01:10:42;;;;;;;6.20;5.27;;;18.80;99.90;;;;;;4991480;28;20994;-58
2023/08/02 01:13:10;;;;;;;5.37;5.00;;;18.80;99.90;;;;;;4992375;28;20953;-58
2023/08/02 01:15:37;;;;;;;5.47;5.10;;;18.80;99.90;;;;;;4991334;28;20481;-58
2023/08/02 01:18:03;;;;;;;5.83;5.27;;;18.70;99.90;;;;;;4977214;28;20805;-58
2023/08/02 01:20:29;;;;;;;6.13;5.63;;;18.80;99.90;;;;;;4991616;28;20453;-57
2023/08/02 01:22:55;;;;;;;5.30;5.00;;;18.70;99.90;;;;;;4986156;28;20427;-58
2023/08/02 01:25:25;;;;;;;5.33;4.83;;;18.70;99.90;;;;;;4990590;28;20182;-58
2023/08/02 01:27:56;;;;;;;6.27;5.73;;;18.60;99.90;;;;;;4990907;28;20478;-58
2023/08/02 01:30:30;;;;;;;5.87;5.40;;;18.30;99.90;;;;;;4992257;28;20418;-58
2023/08/02 01:32:57;;;;;;;6.00;5.60;;;18.30;99.90;;;;;;4991310;28;20454;-57
2023/08/02 01:35:23;;;;;;;6.40;5.90;;;18.40;99.90;;;;;;4991679;28;21083;-58
2023/08/02 01:37:49;;;;;;;6.03;5.30;;;18.50;99.90;;;;;;4991483;28;20480;-58
2023/08/02 01:40:15;;;;;;;6.30;5.33;;;18.50;99.90;;;;;;4991024;28;20431;-58
2023/08/02 01:42:40;;;;;;;5.77;5.37;;;18.60;99.90;;;;;;4992714;28;20180;-58
2023/08/02 01:45:07;;;;;;;5.60;5.30;;;18.60;99.90;;;;;;4976259;28;20690;-59
2023/08/02 01:47:32;;;;;;;5.80;5.40;;;18.60;99.90;;;;;;4973011;28;20307;-58
2023/08/02 01:49:58;;;;;;;6.07;5.47;;;18.60;99.90;;;;;;4955988;28;20562;-58
2023/08/02 01:52:24;;;;;;;6.77;6.37;;;18.50;99.90;;;;;;4975585;28;20467;-58
2023/08/02 01:54:49;;;;;;;5.80;5.30;;;18.60;99.90;;;;;;4969651;28;20263;-58
2023/08/02 01:57:15;;;;;;;5.33;5.03;;;18.60;99.90;;;;;;4990936;28;20322;-58
2023/08/02 01:59:42;;;;;;;5.93;5.50;;;18.60;99.90;;;;;;4992005;28;20180;-58
2023/08/02 02:02:10;;;;;;;5.97;5.57;;;18.60;99.90;;;;;;4994131;28;20176;-58
2023/08/02 02:04:35;;;;;;;5.97;5.57;;;18.70;99.90;;;;;;4995109;28;20422;-58
2023/08/02 02:07:01;;;;;;;6.47;5.87;;;18.70;99.90;;;;;;4995103;28;20445;-58
2023/08/02 02:09:27;;;;;;;4.87;4.57;;;18.70;99.90;;;;;;4995675;28;20191;-58
2023/08/02 02:11:53;;;;;;;6.30;5.80;;;18.70;99.90;;;;;;4976455;28;20657;-58
2023/08/02 02:14:18;;;;;;;11.13;6.37;;;18.70;99.90;;;;;;4993668;28;20188;-58
2023/08/02 02:16:44;;;;;;;5.80;5.50;;;18.70;99.90;;;;;;4976154;28;20230;-58
2023/08/02 02:19:10;;;;;;;6.10;5.70;;;18.70;99.90;;;;;;4993469;28;20616;-58
2023/08/02 02:21:36;;;;;;;6.63;5.70;;;18.70;99.90;;;;;;4990645;28;20183;-58
2023/08/02 02:24:02;;;;;;;6.50;6.00;;;18.70;99.90;;;;;;4992751;28;20211;-58
2023/08/02 02:26:28;;;;;;;6.67;6.07;;;18.70;99.90;;;;;;4994601;28;20458;-58
2023/08/02 02:28:53;;;;;;;6.37;5.80;;;18.70;99.90;;;;;;4994769;28;20529;-58
2023/08/02 02:31:19;;;;;;;6.67;6.10;;;18.70;99.90;;;;;;4993993;28;20207;-58
2023/08/02 02:33:45;;;;;;;6.27;5.80;;;18.70;99.90;;;;;;4978040;28;20223;-57
2023/08/02 02:36:11;;;;;;;6.00;5.60;;;18.70;99.90;;;;;;4993623;28;20211;-58
2023/08/02 02:38:36;;;;;;;5.83;5.53;;;18.70;99.90;;;;;;4995155;28;20183;-58
2023/08/02 02:41:02;;;;;;;6.10;5.70;;;18.70;99.90;;;;;;4995485;28;20175;-58
2023/08/02 02:43:28;;;;;;;6.73;6.17;;;18.70;99.90;;;;;;4977101;28;20215;-58
2023/08/02 02:45:54;;;;;;;6.50;6.13;;;18.70;99.90;;;;;;4975902;28;20653;-58
2023/08/02 02:48:19;;;;;;;6.43;6.10;;;18.60;99.90;;;;;;4975380;28;20172;-58
2023/08/02 02:50:45;;;;;;;7.20;6.80;;;18.70;99.90;;;;;;4987797;28;20226;-58
2023/08/02 02:53:11;;;;;;;6.50;5.90;;;18.60;99.90;;;;;;4991810;28;20231;-58
2023/08/02 02:55:36;;;;;;;6.47;6.07;;;18.60;99.90;;;;;;4975975;28;20259;-59
2023/08/02 02:58:02;;;;;;;5.80;5.50;;;18.60;99.90;;;;;;4975507;28;20275;-57
2023/08/02 03:00:28;;;;;;;7.77;6.90;;;18.60;99.90;;;;;;4957524;28;20184;-57
2023/08/02 03:02:54;;;;;;;6.50;5.90;;;18.60;99.90;;;;;;4975905;28;20585;-57
2023/08/02 03:05:19;;;;;;;6.37;6.00;;;18.50;99.90;;;;;;4968131;28;20719;-57
2023/08/02 03:07:48;;;;;;;6.73;6.20;;;18.50;99.90;;;;;;4977798;28;20180;-57
2023/08/02 03:10:14;;;;;;;6.53;6.13;;;18.50;99.90;;;;;;4993343;28;20426;-58
2023/08/02 03:12:40;;;;;;;7.23;6.80;;;18.50;99.90;;;;;;4988303;28;20964;-57
2023/08/02 03:15:06;;;;;;;6.70;6.40;;;18.60;99.90;;;;;;4972617;28;20191;-58
2023/08/02 03:17:32;;;;;;;6.00;5.60;;;18.60;99.90;;;;;;4989398;28;20176;-57
2023/08/02 03:19:58;;;;;;;6.20;5.80;;;18.60;99.90;;;;;;4994118;28;20437;-57
2023/08/02 03:22:24;;;;;;;6.13;5.63;;;18.70;99.90;;;;;;4994222;28;20418;-57
2023/08/02 03:24:49;;;;;;;6.27;5.80;;;18.60;99.90;;;;;;4977836;28;20180;-57
2023/08/02 03:27:15;;;;;;;5.70;5.40;;;18.70;99.90;;;;;;4980084;28;20224;-57
2023/08/02 03:29:41;;;;;;;6.17;5.57;;;18.50;99.90;;;;;;4979108;28;20698;-57
2023/08/02 03:32:07;;;;;;;5.70;5.30;;;18.30;99.90;;;;;;4976839;28;20193;-58
2023/08/02 03:34:35;;;;;;;6.03;5.70;;;18.40;99.90;;;;;;4978234;28;20256;-57
2023/08/02 03:37:01;;;;;;;8.10;6.40;;;18.50;99.90;;;;;;4994369;28;20469;-57
2023/08/02 03:39:27;;;;;;;6.00;5.43;;;18.50;99.90;;;;;;4982411;28;20518;-57
2023/08/02 03:41:54;;;;;;;5.07;4.70;;;18.60;99.90;;;;;;4978096;28;20250;-57
2023/08/02 03:44:20;;;;;;;6.00;5.60;;;18.60;99.90;;;;;;4993770;28;20403;-57
2023/08/02 03:46:46;;;;;;;6.03;5.70;;;18.70;99.90;;;;;;4964123;28;20435;-57
2023/08/02 03:49:11;;;;;;;6.00;5.60;;;18.70;99.90;;;;;;4975094;28;20906;-58
2023/08/02 03:51:37;;;;;;;5.20;4.90;;;18.70;99.90;;;;;;4993669;28;20230;-57
2023/08/02 03:54:03;;;;;;;6.30;6.00;;;18.70;99.90;;;;;;4985166;28;20195;-57
2023/08/02 03:56:29;;;;;;;6.37;5.90;;;18.60;99.90;;;;;;4974086;28;20200;-57
2023/08/02 03:58:55;;;;;;;6.03;5.73;;;18.50;99.90;;;;;;4974259;28;20844;-57
2023/08/02 04:01:21;;;;;;;5.47;5.10;;;18.30;99.90;;;;;;4981065;28;20438;-57
2023/08/02 04:03:47;;;;;;;8.17;7.03;;;18.10;99.90;;;;;;4993442;28;20179;-58
2023/08/02 04:06:13;;;;;;;6.30;5.90;;;18.10;99.90;;;;;;4974016;28;20184;-58
2023/08/02 04:08:39;;;;;;;5.53;5.13;;;18.20;99.90;;;;;;4974271;28;20184;-58
2023/08/02 04:11:05;;;;;;;5.10;4.70;;;18.20;99.90;;;;;;4990434;28;20441;-57
2023/08/02 04:13:32;;;;;;;4.90;4.60;;;18.10;99.90;;;;;;4993093;28;20218;-57
2023/08/02 04:15:57;;;;;;;4.50;4.20;;;18.10;99.90;;;;;;4992676;28;20471;-57
2023/08/02 04:18:23;;;;;;;5.60;5.03;;;18.00;99.90;;;;;;4992168;28;20454;-58
2023/08/02 04:20:49;;;;;;;5.80;5.30;;;18.10;99.90;;;;;;4993648;28;20553;-58
2023/08/02 04:23:14;;;;;;;5.80;5.40;;;18.20;99.90;;;;;;4981952;28;20185;-58
2023/08/02 04:25:40;;;;;;;5.90;5.50;;;18.20;99.90;;;;;;4984171;28;20578;-58
2023/08/02 04:28:09;;;;;;;4.90;4.60;;;18.30;99.90;;;;;;4993644;28;20219;-57
2023/08/02 04:30:35;;;;;;;5.50;5.00;;;18.20;99.90;;;;;;4981822;28;20180;-57
2023/08/02 04:33:01;;;;;;;5.90;5.50;;;18.20;99.90;;;;;;4974126;28;20870;-57
2023/08/02 04:35:29;;;;;;;7.27;6.63;;;18.10;99.90;;;;;;4990025;28;20271;-57
2023/08/02 04:37:54;;;;;;;6.20;5.50;;;18.10;99.90;;;;;;4957046;28;20230;-57
2023/08/02 04:40:20;;;;;;;4.93;4.63;;;18.10;99.90;;;;;;4973280;28;20424;-57
2023/08/02 04:42:47;;;;;;;5.27;4.87;;;18.00;99.90;;;;;;4983084;28;20543;-56
2023/08/02 04:45:13;;;;;;;6.37;5.80;;;17.90;99.90;;;;;;4993056;28;20188;-58
2023/08/02 04:47:39;;;;;;;6.90;6.30;;;17.90;99.90;;;;;;4985008;28;20435;-57
2023/08/02 04:50:06;;;;;;;4.90;4.63;;;17.90;99.90;;;;;;4992202;28;20949;-57
2023/08/02 04:52:33;;;;;;;5.60;5.10;;;17.90;99.90;;;;;;4991768;28;20230;-57
2023/08/02 04:54:59;;;;;;;6.87;6.47;;;17.70;99.90;;;;;;4975753;28;20438;-57
2023/08/02 04:57:25;;;;;;;5.30;4.90;;;17.70;99.90;;;;;;4991011;28;20431;-57
2023/08/02 04:59:53;;;;;;;8.13;5.40;;;17.70;99.90;;;;;;4992144;28;20421;-57
2023/08/02 05:02:21;;;;;;;6.27;5.83;;;17.60;99.90;;;;;;4991399;28;20226;-57
2023/08/02 05:04:52;;;;;;;5.20;4.80;;;17.70;99.90;;;;;;4992444;28;20813;-57
2023/08/02 05:07:18;;;;;;;6.73;6.00;;;17.70;99.90;;;;;;4991928;28;20506;-57
2023/08/02 05:09:44;;;;;;;6.63;6.20;;;17.80;99.90;;;;;;4988834;28;20534;-57
2023/08/02 05:12:09;;;;;;;5.00;4.70;;;17.90;99.90;;;;;;4984130;28;20640;-57
2023/08/02 05:14:35;;;;;;;6.17;5.67;;;18.00;99.90;;;;;;4972469;28;20260;-56
2023/08/02 05:17:01;;;;;;;5.67;5.20;;;18.10;99.90;;;;;;4973616;28;20176;-56
2023/08/02 05:19:27;;;;;;;10.27;8.90;;;17.80;99.90;;;;;;4983959;28;20654;-57
2023/08/02 05:21:53;;;;;;;6.83;6.20;;;17.90;99.90;;;;;;4992612;28;20426;-57
2023/08/02 05:24:18;;;;;;;7.33;6.83;;;17.90;99.90;;;;;;4972581;28;20194;-57
2023/08/02 05:26:44;;;;;;;5.87;5.47;;;17.90;99.90;;;;;;4979984;28;20418;-57
2023/08/02 05:29:10;;;;;;;8.03;7.33;;;17.90;99.90;;;;;;4992832;28;20226;-57
2023/08/02 05:31:35;;;;;;;5.47;5.00;;;17.90;99.90;;;;;;4970958;28;20760;-57
2023/08/02 05:34:01;;;;;;;6.40;5.90;;;17.90;99.90;;;;;;4991469;28;20214;-56
2023/08/02 05:36:27;;;;;;;6.13;5.70;;;17.90;99.90;;;;;;4993378;28;20175;-57
2023/08/02 05:38:53;;;;;;;6.23;5.70;;;17.90;99.90;;;;;;4977256;28;20467;-57
2023/08/02 05:41:18;;;;;;;6.00;5.63;;;17.90;99.90;;;;;;4984580;28;20637;-58
2023/08/02 05:43:44;;;;;;;6.07;5.40;;;17.80;99.90;;;;;;4976987;28;20270;-57
2023/08/02 05:46:11;;;;;;;6.37;5.97;;;17.70;99.90;;;;;;4977075;28;20191;-57
2023/08/02 05:48:37;;;;;;;11.63;6.77;;;17.70;99.90;;;;;;4993256;28;20451;-57
2023/08/02 05:51:02;;;;;;;6.20;5.60;;;17.80;99.90;;;;;;4996533;28;20457;-57
2023/08/02 05:53:28;;;;;;;5.90;5.50;;;17.70;99.90;;;;;;4993169;28;20609;-57
2023/08/02 05:55:55;;;;;;;6.50;6.10;;;17.60;99.90;;;;;;4995586;28;20175;-56
2023/08/02 05:58:21;;;;;;;10.37;9.33;;;17.60;99.90;;;;;;4995541;28;20518;-57
2023/08/02 06:00:47;;;;;;;7.33;6.70;;;17.60;99.90;;;;;;4983956;28;20423;-57
2023/08/02 06:03:13;;;;;;;5.03;4.60;;;17.80;99.90;;;;;;4984237;28;20187;-57
2023/08/02 06:05:38;;;;;;;5.70;5.20;;;17.80;99.90;;;;;;4980690;28;20934;-57
2023/08/02 06:08:04;;;;;;;5.30;5.00;;;17.80;99.90;;;;;;4996320;28;20222;-57
2023/08/02 06:10:30;;;;;;;5.20;4.80;;;17.70;99.90;;;;;;4994434;28;20627;-57
2023/08/02 06:12:57;;;;;;;4.83;4.63;;;17.70;99.90;;;;;;4988751;28;20206;-57
2023/08/02 06:15:23;;;;;;;5.07;4.77;;;17.60;99.90;;;;;;4975953;28;20766;-57
2023/08/02 06:17:49;;;;;;;6.50;5.90;;;17.60;99.90;;;;;;4989480;28;20426;-57
2023/08/02 06:20:14;;;;;;;6.30;5.90;;;17.50;99.90;;;;;;4994971;28;20431;-57
2023/08/02 06:22:41;;;;;;;6.37;5.50;;;17.50;99.90;;;;;;4995200;28;20241;-56
2023/08/02 06:25:07;;;;;;;10.57;9.50;;;17.60;99.90;;;;;;4995038;28;20233;-57
2023/08/02 06:27:32;;;;;;;5.60;5.27;;;17.70;99.90;;;;;;4986820;28;20530;-57
2023/08/02 06:29:58;;;;;;;5.37;5.03;;;17.80;99.90;;;;;;4979074;28;20854;-56
2023/08/02 06:32:24;;;;;;;5.60;5.07;;;17.80;99.90;;;;;;4993201;28;20582;-57
2023/08/02 06:34:50;;;;;;;6.97;6.27;;;17.80;99.90;;;;;;4992586;28;20427;-57
2023/08/02 06:37:16;;;;;;;6.30;5.80;;;17.80;99.90;;;;;;4995312;28;20542;-57
2023/08/02 06:39:41;;;;;;;9.53;8.83;;;17.70;99.90;;;;;;4984671;28;20184;-57
2023/08/02 06:42:07;;;;;;;8.90;8.20;;;17.80;99.90;;;;;;4994656;28;20656;-57
2023/08/02 06:44:33;;;;;;;8.47;7.97;;;17.90;99.90;;;;;;4993639;28;20172;-57
2023/08/02 06:46:58;;;;;;;8.23;7.47;;;18.00;99.90;;;;;;4988924;28;20188;-58
2023/08/02 06:49:27;;;;;;;8.20;7.63;;;18.10;99.90;;;;;;4989051;28;20179;-57
2023/08/02 06:51:52;;;;;;;8.70;8.10;;;18.10;99.90;;;;;;4994298;28;20461;-58
2023/08/02 06:54:18;;;;;;;7.80;7.20;;;18.20;99.90;;;;;;4995015;28;20243;-58
2023/08/02 06:56:44;;;;;;;5.60;5.20;;;18.30;99.90;;;;;;4986896;28;20259;-58
2023/08/02 06:59:09;;;;;;;6.00;5.50;;;18.30;99.90;;;;;;4992686;28;20249;-57
2023/08/02 07:01:35;;;;;;;6.47;5.90;;;18.10;99.90;;;;;;4987999;28;20208;-57
2023/08/02 07:04:01;;;;;;;6.00;5.60;;;18.00;99.90;;;;;;4974666;28;20259;-57
2023/08/02 07:06:27;;;;;;;6.37;5.87;;;18.00;99.90;;;;;;4993166;28;20184;-57
2023/08/02 07:08:52;;;;;;;5.30;5.00;;;18.20;99.90;;;;;;4991366;28;20196;-58
2023/08/02 07:11:18;;;;;;;5.57;5.17;;;18.20;99.90;;;;;;4975746;28;20243;-58
2023/08/02 07:13:45;;;;;;;5.40;5.10;;;18.30;99.90;;;;;;4984474;28;20207;-58
2023/08/02 07:16:11;;;;;;;5.77;5.37;;;18.30;99.90;;;;;;4973956;28;20267;-58
2023/08/02 07:18:37;;;;;;;5.50;5.07;;;18.40;99.90;;;;;;4990562;28;20415;-58
2023/08/02 07:21:07;;;;;;;5.97;5.57;;;18.40;99.90;;;;;;4983148;28;20438;-58
2023/08/02 07:23:33;;;;;;;6.67;6.07;;;18.50;99.90;;;;;;4992873;28;20434;-58
2023/08/02 07:25:59;;;;;;;7.40;6.90;;;18.50;99.90;;;;;;4988060;28;20595;-56
2023/08/02 07:28:25;;;;;;;7.90;7.40;;;18.60;99.90;;;;;;4983979;28;20984;-58
2023/08/02 07:30:51;;;;;;;6.40;5.90;;;18.70;99.90;;;;;;4987105;28;20795;-56
2023/08/02 07:33:17;;;;;;;7.10;6.70;;;18.60;99.90;;;;;;4970994;28;20450;-57
2023/08/02 07:35:46;;;;;;;6.70;6.40;;;18.60;99.90;;;;;;4985369;28;20188;-57
2023/08/02 07:38:14;;;;;;;6.63;6.33;;;18.50;99.90;;;;;;4985686;28;20179;-57
2023/08/02 07:40:43;;;;;;;7.73;7.27;;;18.50;99.90;;;;;;4987537;28;20423;-57
2023/08/02 07:43:09;;;;;;;6.63;6.30;;;18.60;99.90;;;;;;4991753;28;20533;-57
2023/08/02 07:45:35;;;;;;;6.77;6.30;;;18.60;99.90;;;;;;4987546;28;20435;-57
2023/08/02 07:48:01;;;;;;;6.80;6.50;;;18.40;99.90;;;;;;4963239;28;20824;-57
2023/08/02 07:50:27;;;;;;;7.40;7.00;;;18.40;99.90;;;;;;4984556;28;20207;-62
2023/08/02 07:52:52;;;;;;;7.13;6.80;;;18.30;99.90;;;;;;4986327;28;20231;-61
2023/08/02 07:55:18;;;;;;;7.90;7.50;;;18.30;99.90;;;;;;4986195;28;20188;-61
2023/08/02 07:57:44;;;;;;;6.80;6.60;;;18.20;99.90;;;;;;4988544;28;20782;-61
2023/08/02 08:00:10;;;;;;;6.80;6.60;;;18.10;99.90;;;;;;4978290;28;20238;-62
2023/08/02 08:02:36;;;;;;;7.30;7.00;;;18.10;99.90;;;;;;4982330;28;20188;-62
2023/08/02 08:05:02;;;;;;;6.40;6.10;;;18.30;99.90;;;;;;4986021;28;20485;-61
2023/08/02 08:07:27;;;;;;;5.80;5.60;;;18.40;99.90;;;;;;4982339;28;20707;-61
2023/08/02 08:09:53;;;;;;;7.50;7.10;;;18.40;99.90;;;;;;4988986;28;20440;-61
2023/08/02 08:12:19;;;;;;;11.37;10.37;;;18.40;99.90;;;;;;4985246;28;20186;-60
2023/08/02 08:14:45;;;;;;;7.30;6.80;;;18.50;99.90;;;;;;4985938;28;20765;-61
2023/08/02 08:17:10;;;;;;;4.57;4.37;;;18.60;99.90;;;;;;4989563;28;20192;-60
2023/08/02 08:19:36;;;;;;;4.67;4.37;;;18.70;99.90;;;;;;4992176;28;20184;-61
2023/08/02 08:22:02;;;;;;;4.03;3.73;;;18.70;99.90;;;;;;4983283;28;20289;-61
2023/08/02 08:24:28;;;;;;;4.40;4.20;;;18.80;99.90;;;;;;4983709;28;20183;-62
2023/08/02 08:26:57;;;;;;;4.87;4.57;;;18.90;99.90;;;;;;4966085;28;20242;-61
2023/08/02 08:29:24;;;;;;;4.10;4.00;;;19.10;99.90;;;;;;4981702;28;20451;-62
2023/08/02 08:31:49;;;;;;;4.10;4.00;;;19.10;99.90;;;;;;4983263;28;20540;-61
2023/08/02 08:34:15;;;;;;;5.47;5.17;;;19.20;99.90;;;;;;4965627;28;20206;-61
2023/08/02 08:36:41;;;;;;;5.60;5.30;;;19.40;99.90;;;;;;4988624;28;20202;-61
2023/08/02 08:39:06;;;;;;;4.57;4.37;;;19.60;99.90;;;;;;4983677;28;20183;-60
2023/08/02 08:41:32;;;;;;;4.63;4.43;;;19.60;99.90;;;;;;4979804;28;20184;-61
2023/08/02 08:44:01;;;;;;;5.00;4.70;;;19.40;99.90;;;;;;4988860;28;20560;-61
2023/08/02 08:46:30;;;;;;;4.87;4.67;;;19.30;99.90;;;;;;4989797;28;20186;-62
2023/08/02 08:48:56;;;;;;;5.03;4.73;;;19.20;99.90;;;;;;4990902;28;20926;-61
2023/08/02 08:51:24;;;;;;;5.27;5.00;;;19.30;99.90;;;;;;4985161;28;20426;-61
2023/08/02 08:53:52;;;;;;;4.80;4.50;;;19.10;99.90;;;;;;4989144;28;20459;-62
2023/08/02 08:56:24;;;;;;;32.13;27.40;;;19.20;99.90;;;;;;4971367;28;20465;-61
2023/08/02 08:58:51;;;;;;;24.77;22.37;;;19.00;99.90;;;;;;4984354;28;20438;-61
2023/08/02 09:01:17;;;;;;;45.17;36.23;;;19.00;99.90;;;;;;4989575;28;20430;-61
2023/08/02 09:03:45;;;;;;;9.53;8.80;;;18.80;99.90;;;;;;4988230;28;20493;-62
2023/08/02 09:06:15;;;;;;;5.20;4.80;;;19.00;99.90;;;;;;4989694;28;20791;-57
2023/08/02 09:08:47;;;;;;;5.00;4.80;;;18.80;99.90;;;;;;4982239;28;20442;-62
2023/08/02 09:11:15;;;;;;;4.60;4.40;;;18.80;99.90;;;;;;4990671;28;20505;-62
2023/08/02 09:13:41;;;;;;;4.50;4.30;;;18.80;99.90;;;;;;4990649;28;20466;-64
2023/08/02 09:16:13;;;;;;;4.67;4.27;;;18.70;99.90;;;;;;4987623;28;20439;-61
2023/08/02 09:18:41;;;;;;;4.47;4.27;;;18.80;99.90;;;;;;4983248;28;20431;-59
2023/08/02 09:21:09;;;;;;;4.37;4.17;;;18.80;99.90;;;;;;4990700;28;21000;-59
2023/08/02 09:23:35;;;;;;;3.87;3.67;;;18.60;99.90;;;;;;4990102;28;20443;-59
2023/08/02 09:26:16;;;;;;;3.97;3.77;;;18.60;99.90;;;;;;4991018;28;20427;-58
2023/08/02 09:29:00;;;;;;;3.70;3.60;;;18.50;99.90;;;;;;4986798;28;20619;-57
2023/08/02 09:31:30;;;;;;;4.07;3.93;;;18.60;99.90;;;;;;4991789;28;20914;-58
2023/08/02 09:33:57;;;;;;;3.70;3.60;;;18.80;99.90;;;;;;4989747;28;20493;-57
2023/08/02 09:36:33;;;;;;;4.23;4.03;;;18.90;99.90;;;;;;4993157;28;20426;-57
2023/08/02 09:39:10;;;;;;;4.37;4.07;;;19.00;99.90;;;;;;4971552;28;20438;-58
2023/08/02 09:41:35;;;;;;;4.50;4.30;;;19.10;99.90;;;;;;4990910;28;20493;-57
2023/08/02 09:44:01;;;;;;;3.73;3.50;;;19.20;99.90;;;;;;4990111;28;20430;-57
2023/08/02 09:46:29;;;;;;;3.03;2.93;;;19.40;99.90;;;;;;4977856;28;20216;-56
2023/08/02 09:48:59;;;;;;;3.13;3.00;;;19.60;99.90;;;;;;4974207;28;20434;-51
2023/08/02 09:51:41;;;;;;;3.10;2.90;;;19.80;99.90;;;;;;4990112;28;20431;-57
2023/08/02 09:54:08;;;;;;;2.73;2.60;;;20.10;99.90;;;;;;4985959;28;20566;-63
2023/08/02 09:56:38;;;;;;;3.60;3.40;;;20.20;99.90;;;;;;4989617;28;20454;-62
2023/08/02 09:59:05;;;;;;;31.03;27.63;;;20.30;99.90;;;;;;4991258;28;20442;-62
2023/08/02 10:01:32;;;;;;;16.40;13.83;;;20.40;99.90;;;;;;4989570;28;21004;-65
2023/08/02 10:04:02;;;;;;;3.50;3.40;;;20.40;99.90;;;;;;4992260;28;20435;-63
2023/08/02 10:06:35;;;;;;;3.17;3.07;;;20.30;99.90;;;;;;4990275;28;20883;-64
2023/08/02 10:09:08;;;;;;;3.70;3.60;;;20.40;99.90;;;;;;4988489;28;20490;-63
2023/08/02 10:11:49;;;;;;;3.40;3.30;;;20.30;99.90;;;;;;4987034;28;20431;-65
2023/08/02 10:14:15;;;;;;;3.20;3.10;;;20.40;99.90;;;;;;4981814;28;20561;-62
2023/08/02 10:16:42;;;;;;;3.50;3.40;;;20.30;99.90;;;;;;4985426;28;20434;-64
2023/08/02 10:19:11;;;;;;;3.40;3.30;;;20.40;99.90;;;;;;4984784;28;20440;-63
2023/08/02 10:21:38;;;;;;;3.77;3.67;;;20.50;99.90;;;;;;4983673;28;20438;-64
2023/08/02 10:24:05;;;;;;;4.90;4.60;;;20.60;99.90;;;;;;4989481;28;20481;-64
2023/08/02 10:26:31;;;;;;;3.30;3.20;;;20.60;99.90;;;;;;4991481;28;20554;-65
2023/08/02 10:28:59;;;;;;;2.80;2.70;;;20.60;99.90;;;;;;4989716;28;20450;-61
2023/08/02 10:31:26;;;;;;;2.90;2.83;;;20.60;99.90;;;;;;4982636;28;20485;-64
2023/08/02 10:33:52;;;;;;;3.33;3.13;;;20.70;99.90;;;;;;4994892;28;20592;-64
2023/08/02 10:36:17;;;;;;;3.10;3.00;;;20.60;99.90;;;;;;4993662;28;20440;-64
2023/08/02 10:38:43;;;;;;;2.87;2.77;;;20.60;99.90;;;;;;4990622;28;20930;-65
2023/08/02 10:41:17;;;;;;;2.70;2.70;;;20.70;99.90;;;;;;4990831;28;20187;-65
2023/08/02 10:44:00;;;;;;;2.47;2.47;;;20.70;99.90;;;;;;4988824;28;20233;-63
2023/08/02 10:46:28;;;;;;;6.13;5.73;;;20.90;99.90;;;;;;4988777;28;20431;-70
2023/08/02 10:49:14;;;;;;;4.30;4.20;;;20.90;99.90;;;;;;4973673;28;20514;-66
2023/08/02 10:51:42;;;;;;;3.40;3.30;;;20.80;99.90;;;;;;4972842;28;20446;-68
2023/08/02 10:54:18;;;;;;;3.20;3.10;;;20.90;99.90;;;;;;4993155;28;20501;-67
2023/08/02 10:56:51;;;;;;;2.67;2.67;;;20.80;99.90;;;;;;4990541;28;20926;-63
2023/08/02 10:59:22;;;;;;;4.03;3.93;;;20.90;99.90;;;;;;4986903;28;21001;-66
2023/08/02 11:01:54;;;;;;;2.80;2.80;;;20.90;99.90;;;;;;4986996;28;20481;-64
2023/08/02 11:04:20;;;;;;;2.90;2.90;;;21.00;99.90;;;;;;4991916;28;20906;-64
2023/08/02 11:06:45;;;;;;;2.40;2.40;;;20.90;99.90;;;;;;4978979;28;20453;-63
2023/08/02 11:09:11;;;;;;;2.30;2.30;;;21.00;99.90;;;;;;4992850;28;20640;-64
2023/08/02 11:11:38;;;;;;;2.20;2.20;;;20.90;99.90;;;;;;4991929;28;20176;-64
2023/08/02 11:14:04;;;;;;;2.30;2.30;;;21.00;99.90;;;;;;4992248;28;20294;-63
2023/08/02 11:16:30;;;;;;;3.30;3.20;;;21.00;99.90;;;;;;4992705;28;20509;-64
2023/08/02 11:18:58;;;;;;;3.40;3.30;;;21.00;99.90;;;;;;4992110;28;20549;-64
2023/08/02 11:21:23;;;;;;;4.43;4.27;;;21.10;99.90;;;;;;4987547;28;20427;-63
2023/08/02 11:23:49;;;;;;;3.77;3.50;;;21.20;99.90;;;;;;4974788;28;20429;-63
2023/08/02 11:26:18;;;;;;;3.40;3.30;;;21.40;99.90;;;;;;4988551;28;20167;-64
2023/08/02 11:28:48;;;;;;;3.83;3.73;;;21.50;99.90;;;;;;4993636;28;20188;-66
2023/08/02 11:31:14;;;;;;;3.60;3.50;;;21.60;99.90;;;;;;4989479;28;20835;-64
2023/08/02 11:33:40;;;;;;;3.40;3.40;;;21.70;99.90;;;;;;4980640;28;20468;-64
2023/08/02 11:36:06;;;;;;;3.40;3.30;;;22.00;99.90;;;;;;4990583;28;20442;-64
2023/08/02 11:38:32;;;;;;;3.60;3.50;;;22.30;99.90;;;;;;4994781;28;20411;-63
2023/08/02 11:40:58;;;;;;;3.23;3.13;;;22.60;99.90;;;;;;4991943;28;20880;-64
2023/08/02 11:43:34;;;;;;;3.00;3.00;;;22.80;99.90;;;;;;4993731;28;20489;-64
2023/08/02 11:46:11;;;;;;;2.73;2.73;;;22.90;99.90;;;;;;4990238;28;20917;-63
2023/08/02 11:48:36;;;;;;;2.90;2.80;;;23.00;99.90;;;;;;4992311;28;20454;-70
2023/08/02 11:51:03;;;;;;;3.00;2.83;;;23.10;99.90;;;;;;4991820;28;20474;-69
2023/08/02 11:53:29;;;;;;;3.07;3.07;;;23.30;99.90;;;;;;4994024;28;20637;-63
2023/08/02 11:55:55;;;;;;;3.13;3.03;;;23.50;99.90;;;;;;4967916;28;20514;-63
2023/08/02 11:58:21;;;;;;;3.30;3.20;;;23.60;99.90;;;;;;4981993;28;20188;-64
2023/08/02 12:00:48;;;;;;;3.20;3.10;;;23.70;99.90;;;;;;4989002;28;20485;-64
2023/08/02 12:03:15;;;;;;;3.00;2.80;;;23.60;99.90;;;;;;4994242;28;20422;-63
2023/08/02 12:05:42;;;;;;;3.40;3.10;;;23.80;99.90;;;;;;4990523;28;20830;-64
2023/08/02 12:08:17;;;;;;;2.80;2.70;;;23.60;99.90;;;;;;4991693;28;20522;-64
2023/08/02 12:10:44;;;;;;;2.87;2.80;;;23.60;99.90;;;;;;4991842;28;20426;-64
2023/08/02 12:13:17;;;;;;;3.30;3.30;;;23.60;99.90;;;;;;4990501;28;20823;-64
2023/08/02 12:15:59;;;;;;;3.00;3.00;;;23.50;99.90;;;;;;4985771;28;21023;-64
2023/08/02 12:18:24;;;;;;;2.90;2.90;;;23.30;99.90;;;;;;4992217;28;20485;-64
2023/08/02 12:20:50;;;;;;;2.87;2.60;;;23.10;99.90;;;;;;4991197;28;20430;-64
2023/08/02 12:23:33;;;;;;;2.63;2.53;;;23.10;99.90;;;;;;4983123;28;20274;-64
2023/08/02 12:25:59;;;;;;;2.20;2.20;;;23.20;99.90;;;;;;4984769;28;20194;-64
2023/08/02 12:28:24;;;;;;;2.30;2.30;;;23.20;99.90;;;;;;4993999;28;20442;-64
2023/08/02 12:31:04;;;;;;;1.90;1.90;;;23.10;99.90;;;;;;4991064;28;20435;-63
2023/08/02 12:33:33;;;;;;;2.80;2.70;;;23.20;99.90;;;;;;4992542;28;20570;-63
2023/08/02 12:35:59;;;;;;;2.60;2.50;;;23.20;99.90;;;;;;4991822;28;20441;-64
2023/08/02 12:38:29;;;;;;;2.30;2.30;;;23.40;99.90;;;;;;4979914;28;20428;-64
2023/08/02 12:40:59;;;;;;;2.90;2.90;;;23.50;99.90;;;;;;4968372;28;20430;-64
2023/08/02 12:43:26;;;;;;;3.30;3.20;;;23.40;99.90;;;;;;4993496;28;20779;-64
2023/08/02 12:45:53;;;;;;;3.17;3.17;;;23.20;99.90;;;;;;4961383;28;20428;-64